sensor_id;sensor_type;location;lat;lon;timestamp;temperature;humidity
2463;DHT22;1243;54.298;10.172;2023-04-21T00:01:58;7.70;60.10
2463;DHT22;1243;54.298;10.172;2023-04-21T00:04:25;7.70;62.40
2463;DHT22;1243;54.298;10.172;2023-04-21T00:06:50;7.70;61.90
2463;DHT22;1243;54.298;10.172;2023-04-21T00:09:17;7.60;56.10
2463;DHT22;1243;54.298;10.172;2023-04-21T00:11:43;7.60;53.70
2463;DHT22;1243;54.298;10.172;2023-04-21T00:14:09;7.70;53.70
2463;DHT22;1243;54.298;10.172;2023-04-21T00:16:35;7.60;54.20
2463;DHT22;1243;54.298;10.172;2023-04-21T00:19:00;7.70;53.30
2463;DHT22;1243;54.298;10.172;2023-04-21T00:21:34;7.70;53.00
2463;DHT22;1243;54.298;10.172;2023-04-21T00:24:00;7.60;51.40
2463;DHT22;1243;54.298;10.172;2023-04-21T00:26:26;7.60;45.70
2463;DHT22;1243;54.298;10.172;2023-04-21T00:28:52;7.70;45.80
2463;DHT22;1243;54.298;10.172;2023-04-21T00:31:17;7.70;42.20
2463;DHT22;1243;54.298;10.172;2023-04-21T00:33:43;7.60;37.40
2463;DHT22;1243;54.298;10.172;2023-04-21T00:36:08;7.60;34.40
2463;DHT22;1243;54.298;10.172;2023-04-21T00:38:34;7.60;30.80
2463;DHT22;1243;54.298;10.172;2023-04-21T00:41:00;7.60;29.50
2463;DHT22;1243;54.298;10.172;2023-04-21T00:43:29;7.60;27.20
2463;DHT22;1243;54.298;10.172;2023-04-21T00:45:54;7.60;31.50
2463;DHT22;1243;54.298;10.172;2023-04-21T00:48:20;7.60;30.40
2463;DHT22;1243;54.298;10.172;2023-04-21T00:50:46;7.60;30.50
2463;DHT22;1243;54.298;10.172;2023-04-21T00:53:13;7.70;28.40
2463;DHT22;1243;54.298;10.172;2023-04-21T00:55:39;7.70;22.60
2463;DHT22;1243;54.298;10.172;2023-04-21T00:58:05;7.70;17.40
2463;DHT22;1243;54.298;10.172;2023-04-21T01:00:31;7.70;18.10
2463;DHT22;1243;54.298;10.172;2023-04-21T01:03:01;7.70;17.00
2463;DHT22;1243;54.298;10.172;2023-04-21T01:05:27;7.70;16.10
2463;DHT22;1243;54.298;10.172;2023-04-21T01:07:52;7.70;13.60
2463;DHT22;1243;54.298;10.172;2023-04-21T01:10:18;7.70;9.00
2463;DHT22;1243;54.298;10.172;2023-04-21T01:12:45;7.70;10.30
2463;DHT22;1243;54.298;10.172;2023-04-21T01:15:12;7.70;5.60
2463;DHT22;1243;54.298;10.172;2023-04-21T01:17:38;7.70;8.90
2463;DHT22;1243;54.298;10.172;2023-04-21T01:20:11;7.70;1.50
2463;DHT22;1243;54.298;10.172;2023-04-21T01:22:38;7.60;2.10
2463;DHT22;1243;54.298;10.172;2023-04-21T01:25:05;7.60;1.00
2463;DHT22;1243;54.298;10.172;2023-04-21T01:27:31;7.60;1.00
2463;DHT22;1243;54.298;10.172;2023-04-21T01:29:57;7.60;1.00
2463;DHT22;1243;54.298;10.172;2023-04-21T01:32:26;7.60;1.00
2463;DHT22;1243;54.298;10.172;2023-04-21T01:34:55;7.60;1.00
2463;DHT22;1243;54.298;10.172;2023-04-21T01:37:24;7.60;1.00
2463;DHT22;1243;54.298;10.172;2023-04-21T01:39:53;7.60;1.00
2463;DHT22;1243;54.298;10.172;2023-04-21T01:42:21;7.50;1.00
2463;DHT22;1243;54.298;10.172;2023-04-21T01:44:47;7.50;1.00
2463;DHT22;1243;54.298;10.172;2023-04-21T01:47:14;7.50;1.00
2463;DHT22;1243;54.298;10.172;2023-04-21T01:49:40;7.50;1.00
2463;DHT22;1243;54.298;10.172;2023-04-21T01:52:06;7.50;1.00
2463;DHT22;1243;54.298;10.172;2023-04-21T01:54:32;7.50;1.00
2463;DHT22;1243;54.298;10.172;2023-04-21T01:56:58;7.40;1.00
2463;DHT22;1243;54.298;10.172;2023-04-21T01:59:24;7.40;1.00
2463;DHT22;1243;54.298;10.172;2023-04-21T02:01:49;7.40;1.00
2463;DHT22;1243;54.298;10.172;2023-04-21T02:04:15;7.40;1.00
2463;DHT22;1243;54.298;10.172;2023-04-21T02:06:44;7.40;1.00
2463;DHT22;1243;54.298;10.172;2023-04-21T02:09:10;7.40;1.00
2463;DHT22;1243;54.298;10.172;2023-04-21T02:11:36;7.40;1.00
2463;DHT22;1243;54.298;10.172;2023-04-21T02:14:02;7.40;1.00
2463;DHT22;1243;54.298;10.172;2023-04-21T02:16:28;7.40;1.00
2463;DHT22;1243;54.298;10.172;2023-04-21T02:18:55;7.40;1.00
2463;DHT22;1243;54.298;10.172;2023-04-21T02:21:21;7.40;1.00
2463;DHT22;1243;54.298;10.172;2023-04-21T02:23:47;7.30;1.00
2463;DHT22;1243;54.298;10.172;2023-04-21T02:26:13;7.40;1.00
2463;DHT22;1243;54.298;10.172;2023-04-21T02:28:39;7.40;1.00
2463;DHT22;1243;54.298;10.172;2023-04-21T02:31:05;7.40;1.00
2463;DHT22;1243;54.298;10.172;2023-04-21T02:33:31;7.40;1.00
2463;DHT22;1243;54.298;10.172;2023-04-21T02:35:56;7.40;1.00
2463;DHT22;1243;54.298;10.172;2023-04-21T02:38:22;7.30;1.00
2463;DHT22;1243;54.298;10.172;2023-04-21T02:40:48;7.40;1.00
2463;DHT22;1243;54.298;10.172;2023-04-21T02:43:15;7.40;1.00
2463;DHT22;1243;54.298;10.172;2023-04-21T02:45:41;7.30;1.00
2463;DHT22;1243;54.298;10.172;2023-04-21T02:48:06;7.30;1.00
2463;DHT22;1243;54.298;10.172;2023-04-21T02:50:32;7.30;1.00
2463;DHT22;1243;54.298;10.172;2023-04-21T02:52:58;7.30;1.00
2463;DHT22;1243;54.298;10.172;2023-04-21T02:55:24;7.30;1.00
2463;DHT22;1243;54.298;10.172;2023-04-21T02:57:49;7.30;1.00
2463;DHT22;1243;54.298;10.172;2023-04-21T03:00:15;7.30;1.00
2463;DHT22;1243;54.298;10.172;2023-04-21T03:02:41;7.30;1.00
2463;DHT22;1243;54.298;10.172;2023-04-21T03:05:07;7.30;1.00
2463;DHT22;1243;54.298;10.172;2023-04-21T03:07:33;7.30;1.00
2463;DHT22;1243;54.298;10.172;2023-04-21T03:09:59;7.30;1.00
2463;DHT22;1243;54.298;10.172;2023-04-21T03:12:24;7.30;1.00
2463;DHT22;1243;54.298;10.172;2023-04-21T03:14:50;7.30;1.00
2463;DHT22;1243;54.298;10.172;2023-04-21T03:17:16;7.30;1.00
2463;DHT22;1243;54.298;10.172;2023-04-21T03:19:41;7.20;1.00
2463;DHT22;1243;54.298;10.172;2023-04-21T03:22:07;7.20;1.00
2463;DHT22;1243;54.298;10.172;2023-04-21T03:24:33;7.20;1.00
2463;DHT22;1243;54.298;10.172;2023-04-21T03:26:58;7.20;1.00
2463;DHT22;1243;54.298;10.172;2023-04-21T03:29:24;7.20;1.00
2463;DHT22;1243;54.298;10.172;2023-04-21T03:31:50;7.20;1.00
2463;DHT22;1243;54.298;10.172;2023-04-21T03:34:15;7.20;1.00
2463;DHT22;1243;54.298;10.172;2023-04-21T03:36:41;7.10;1.00
2463;DHT22;1243;54.298;10.172;2023-04-21T03:39:07;7.10;1.00
2463;DHT22;1243;54.298;10.172;2023-04-21T03:41:33;7.10;1.00
2463;DHT22;1243;54.298;10.172;2023-04-21T03:43:58;7.10;1.00
2463;DHT22;1243;54.298;10.172;2023-04-21T03:46:24;7.10;1.00
2463;DHT22;1243;54.298;10.172;2023-04-21T03:48:50;7.10;1.00
2463;DHT22;1243;54.298;10.172;2023-04-21T03:51:16;7.10;1.00
2463;DHT22;1243;54.298;10.172;2023-04-21T03:53:42;7.10;1.00
2463;DHT22;1243;54.298;10.172;2023-04-21T03:56:08;7.20;1.00
2463;DHT22;1243;54.298;10.172;2023-04-21T03:58:34;7.20;1.00
2463;DHT22;1243;54.298;10.172;2023-04-21T04:01:00;7.20;1.00
2463;DHT22;1243;54.298;10.172;2023-04-21T04:03:26;7.20;1.00
2463;DHT22;1243;54.298;10.172;2023-04-21T04:05:51;7.20;1.00
2463;DHT22;1243;54.298;10.172;2023-04-21T04:08:17;7.20;1.00
2463;DHT22;1243;54.298;10.172;2023-04-21T04:10:43;7.20;1.00
2463;DHT22;1243;54.298;10.172;2023-04-21T04:13:09;7.20;1.00
2463;DHT22;1243;54.298;10.172;2023-04-21T04:15:34;7.20;1.00
2463;DHT22;1243;54.298;10.172;2023-04-21T04:18:00;7.20;1.00
2463;DHT22;1243;54.298;10.172;2023-04-21T04:20:28;7.20;1.00
2463;DHT22;1243;54.298;10.172;2023-04-21T04:22:53;7.10;1.00
2463;DHT22;1243;54.298;10.172;2023-04-21T04:25:19;7.10;1.00
2463;DHT22;1243;54.298;10.172;2023-04-21T04:27:45;7.20;1.00
2463;DHT22;1243;54.298;10.172;2023-04-21T04:30:14;7.20;1.00
2463;DHT22;1243;54.298;10.172;2023-04-21T04:32:39;7.10;1.00
2463;DHT22;1243;54.298;10.172;2023-04-21T04:35:06;7.10;1.00
2463;DHT22;1243;54.298;10.172;2023-04-21T04:37:34;7.20;1.00
2463;DHT22;1243;54.298;10.172;2023-04-21T04:40:00;7.20;1.00
2463;DHT22;1243;54.298;10.172;2023-04-21T04:42:25;7.20;1.00
2463;DHT22;1243;54.298;10.172;2023-04-21T04:44:54;7.20;1.00
2463;DHT22;1243;54.298;10.172;2023-04-21T04:47:21;7.20;1.00
2463;DHT22;1243;54.298;10.172;2023-04-21T04:49:47;7.20;1.00
2463;DHT22;1243;54.298;10.172;2023-04-21T04:52:13;7.20;1.00
2463;DHT22;1243;54.298;10.172;2023-04-21T04:54:38;7.30;1.00
2463;DHT22;1243;54.298;10.172;2023-04-21T04:57:04;7.30;1.00
2463;DHT22;1243;54.298;10.172;2023-04-21T04:59:29;7.30;1.00
2463;DHT22;1243;54.298;10.172;2023-04-21T05:01:55;7.30;1.00
2463;DHT22;1243;54.298;10.172;2023-04-21T05:04:22;7.40;1.00
2463;DHT22;1243;54.298;10.172;2023-04-21T05:06:47;7.40;1.00
2463;DHT22;1243;54.298;10.172;2023-04-21T05:09:14;7.40;1.00
2463;DHT22;1243;54.298;10.172;2023-04-21T05:11:40;7.50;1.00
2463;DHT22;1243;54.298;10.172;2023-04-21T05:14:06;7.50;1.00
2463;DHT22;1243;54.298;10.172;2023-04-21T05:16:34;7.60;1.00
2463;DHT22;1243;54.298;10.172;2023-04-21T05:19:01;7.60;1.00
2463;DHT22;1243;54.298;10.172;2023-04-21T05:21:27;7.70;1.00
2463;DHT22;1243;54.298;10.172;2023-04-21T05:23:54;7.70;1.00
2463;DHT22;1243;54.298;10.172;2023-04-21T05:26:20;7.80;1.00
2463;DHT22;1243;54.298;10.172;2023-04-21T05:28:46;7.90;1.00
2463;DHT22;1243;54.298;10.172;2023-04-21T05:31:12;7.90;1.00
2463;DHT22;1243;54.298;10.172;2023-04-21T05:33:37;8.00;1.00
2463;DHT22;1243;54.298;10.172;2023-04-21T05:36:07;8.00;1.00
2463;DHT22;1243;54.298;10.172;2023-04-21T05:38:36;8.10;1.00
2463;DHT22;1243;54.298;10.172;2023-04-21T05:41:03;8.20;1.00
2463;DHT22;1243;54.298;10.172;2023-04-21T05:43:29;8.20;1.00
2463;DHT22;1243;54.298;10.172;2023-04-21T05:45:58;8.20;1.00
2463;DHT22;1243;54.298;10.172;2023-04-21T05:48:24;8.30;1.00
2463;DHT22;1243;54.298;10.172;2023-04-21T05:50:50;8.30;1.00
2463;DHT22;1243;54.298;10.172;2023-04-21T05:53:16;8.40;1.00
2463;DHT22;1243;54.298;10.172;2023-04-21T05:55:41;8.40;1.00
2463;DHT22;1243;54.298;10.172;2023-04-21T05:58:07;8.50;1.00
2463;DHT22;1243;54.298;10.172;2023-04-21T06:00:33;8.60;1.00
2463;DHT22;1243;54.298;10.172;2023-04-21T06:02:58;8.70;1.00
2463;DHT22;1243;54.298;10.172;2023-04-21T06:05:24;8.80;1.00
2463;DHT22;1243;54.298;10.172;2023-04-21T06:07:50;8.90;1.00
2463;DHT22;1243;54.298;10.172;2023-04-21T06:10:16;8.90;1.00
2463;DHT22;1243;54.298;10.172;2023-04-21T06:12:41;8.90;1.00
2463;DHT22;1243;54.298;10.172;2023-04-21T06:15:08;9.00;1.00
2463;DHT22;1243;54.298;10.172;2023-04-21T06:17:33;9.10;1.00
2463;DHT22;1243;54.298;10.172;2023-04-21T06:19:59;9.10;1.00
2463;DHT22;1243;54.298;10.172;2023-04-21T06:22:26;9.20;1.00
2463;DHT22;1243;54.298;10.172;2023-04-21T06:24:52;9.20;1.00
2463;DHT22;1243;54.298;10.172;2023-04-21T06:27:18;9.20;1.00
2463;DHT22;1243;54.298;10.172;2023-04-21T06:29:43;9.30;1.00
2463;DHT22;1243;54.298;10.172;2023-04-21T06:32:10;9.30;1.00
2463;DHT22;1243;54.298;10.172;2023-04-21T06:34:36;9.40;1.00
2463;DHT22;1243;54.298;10.172;2023-04-21T06:37:02;9.50;1.00
2463;DHT22;1243;54.298;10.172;2023-04-21T06:39:28;9.60;1.00
2463;DHT22;1243;54.298;10.172;2023-04-21T06:41:54;9.60;1.00
2463;DHT22;1243;54.298;10.172;2023-04-21T06:44:19;9.70;1.00
2463;DHT22;1243;54.298;10.172;2023-04-21T06:46:45;9.80;1.00
2463;DHT22;1243;54.298;10.172;2023-04-21T06:49:12;9.80;1.00
2463;DHT22;1243;54.298;10.172;2023-04-21T06:51:37;9.90;1.00
2463;DHT22;1243;54.298;10.172;2023-04-21T06:54:03;10.00;1.00
2463;DHT22;1243;54.298;10.172;2023-04-21T06:56:30;10.10;1.00
2463;DHT22;1243;54.298;10.172;2023-04-21T06:58:56;10.20;1.00
2463;DHT22;1243;54.298;10.172;2023-04-21T07:01:22;10.20;1.00
2463;DHT22;1243;54.298;10.172;2023-04-21T07:03:51;10.30;1.00
2463;DHT22;1243;54.298;10.172;2023-04-21T07:06:17;10.30;1.00
2463;DHT22;1243;54.298;10.172;2023-04-21T07:08:43;10.40;1.00
2463;DHT22;1243;54.298;10.172;2023-04-21T07:11:08;10.50;1.00
2463;DHT22;1243;54.298;10.172;2023-04-21T07:13:34;10.60;1.00
2463;DHT22;1243;54.298;10.172;2023-04-21T07:16:00;10.70;1.00
2463;DHT22;1243;54.298;10.172;2023-04-21T07:18:26;10.70;1.00
2463;DHT22;1243;54.298;10.172;2023-04-21T07:20:51;10.80;1.00
2463;DHT22;1243;54.298;10.172;2023-04-21T07:23:18;10.80;1.00
2463;DHT22;1243;54.298;10.172;2023-04-21T07:25:43;10.90;1.00
2463;DHT22;1243;54.298;10.172;2023-04-21T07:28:09;11.00;1.00
2463;DHT22;1243;54.298;10.172;2023-04-21T07:30:36;11.10;1.00
2463;DHT22;1243;54.298;10.172;2023-04-21T07:33:02;11.20;1.00
2463;DHT22;1243;54.298;10.172;2023-04-21T07:35:27;11.30;1.00
2463;DHT22;1243;54.298;10.172;2023-04-21T07:37:53;11.50;1.00
2463;DHT22;1243;54.298;10.172;2023-04-21T07:40:19;11.60;1.00
2463;DHT22;1243;54.298;10.172;2023-04-21T07:42:44;11.70;1.00
2463;DHT22;1243;54.298;10.172;2023-04-21T07:45:11;11.80;1.00
2463;DHT22;1243;54.298;10.172;2023-04-21T07:47:37;11.80;1.00
2463;DHT22;1243;54.298;10.172;2023-04-21T07:50:03;11.80;1.00
2463;DHT22;1243;54.298;10.172;2023-04-21T07:52:28;11.90;1.00
2463;DHT22;1243;54.298;10.172;2023-04-21T07:54:54;12.00;1.00
2463;DHT22;1243;54.298;10.172;2023-04-21T07:57:20;12.10;1.00
2463;DHT22;1243;54.298;10.172;2023-04-21T07:59:46;12.20;1.00
2463;DHT22;1243;54.298;10.172;2023-04-21T08:02:11;12.30;1.00
2463;DHT22;1243;54.298;10.172;2023-04-21T08:04:37;12.40;1.00
2463;DHT22;1243;54.298;10.172;2023-04-21T08:07:03;12.40;1.00
2463;DHT22;1243;54.298;10.172;2023-04-21T08:09:28;12.40;1.00
2463;DHT22;1243;54.298;10.172;2023-04-21T08:11:54;12.50;1.00
2463;DHT22;1243;54.298;10.172;2023-04-21T08:14:21;12.60;1.00
2463;DHT22;1243;54.298;10.172;2023-04-21T08:16:47;12.70;1.00
2463;DHT22;1243;54.298;10.172;2023-04-21T08:19:12;12.80;1.00
2463;DHT22;1243;54.298;10.172;2023-04-21T08:21:38;12.90;1.00
2463;DHT22;1243;54.298;10.172;2023-04-21T08:24:04;13.00;1.00
2463;DHT22;1243;54.298;10.172;2023-04-21T08:26:30;13.10;1.00
2463;DHT22;1243;54.298;10.172;2023-04-21T08:28:58;13.20;1.00
2463;DHT22;1243;54.298;10.172;2023-04-21T08:31:24;13.30;1.00
2463;DHT22;1243;54.298;10.172;2023-04-21T08:33:50;13.40;1.00
2463;DHT22;1243;54.298;10.172;2023-04-21T08:36:16;13.30;1.00
2463;DHT22;1243;54.298;10.172;2023-04-21T08:38:42;13.30;1.00
2463;DHT22;1243;54.298;10.172;2023-04-21T08:41:09;13.30;1.00
2463;DHT22;1243;54.298;10.172;2023-04-21T08:43:35;13.40;1.00
2463;DHT22;1243;54.298;10.172;2023-04-21T08:46:07;13.60;1.00
2463;DHT22;1243;54.298;10.172;2023-04-21T08:48:37;13.80;1.00
2463;DHT22;1243;54.298;10.172;2023-04-21T08:51:07;13.90;1.00
2463;DHT22;1243;54.298;10.172;2023-04-21T08:53:36;14.00;1.00
2463;DHT22;1243;54.298;10.172;2023-04-21T08:56:03;14.20;1.00
2463;DHT22;1243;54.298;10.172;2023-04-21T08:58:29;14.20;1.00
2463;DHT22;1243;54.298;10.172;2023-04-21T09:00:55;14.40;1.00
2463;DHT22;1243;54.298;10.172;2023-04-21T09:03:23;14.60;1.00
2463;DHT22;1243;54.298;10.172;2023-04-21T09:06:00;14.90;1.00
2463;DHT22;1243;54.298;10.172;2023-04-21T09:08:27;15.30;1.00
2463;DHT22;1243;54.298;10.172;2023-04-21T09:10:55;15.50;1.00
2463;DHT22;1243;54.298;10.172;2023-04-21T09:13:31;15.70;1.00
2463;DHT22;1243;54.298;10.172;2023-04-21T09:15:57;15.70;1.00
2463;DHT22;1243;54.298;10.172;2023-04-21T09:18:25;15.80;1.00
2463;DHT22;1243;54.298;10.172;2023-04-21T09:23:30;16.20;1.00
2463;DHT22;1243;54.298;10.172;2023-04-21T09:25:55;16.30;1.00
2463;DHT22;1243;54.298;10.172;2023-04-21T09:28:21;16.50;1.00
2463;DHT22;1243;54.298;10.172;2023-04-21T09:30:54;16.50;1.00
2463;DHT22;1243;54.298;10.172;2023-04-21T09:33:20;16.80;1.00
2463;DHT22;1243;54.298;10.172;2023-04-21T09:35:45;17.00;1.00
2463;DHT22;1243;54.298;10.172;2023-04-21T09:38:12;16.90;1.00
2463;DHT22;1243;54.298;10.172;2023-04-21T09:40:38;17.10;1.00
2463;DHT22;1243;54.298;10.172;2023-04-21T09:43:05;17.50;1.00
2463;DHT22;1243;54.298;10.172;2023-04-21T09:45:34;17.40;1.00
2463;DHT22;1243;54.298;10.172;2023-04-21T09:48:00;17.50;1.00
2463;DHT22;1243;54.298;10.172;2023-04-21T09:50:27;17.50;1.00
2463;DHT22;1243;54.298;10.172;2023-04-21T09:52:54;17.70;1.00
2463;DHT22;1243;54.298;10.172;2023-04-21T09:55:28;17.50;1.00
2463;DHT22;1243;54.298;10.172;2023-04-21T09:57:58;17.50;1.00
2463;DHT22;1243;54.298;10.172;2023-04-21T10:00:28;17.70;1.00
2463;DHT22;1243;54.298;10.172;2023-04-21T10:02:55;18.20;1.00
2463;DHT22;1243;54.298;10.172;2023-04-21T10:05:21;18.20;1.00
2463;DHT22;1243;54.298;10.172;2023-04-21T10:07:48;18.40;1.00
2463;DHT22;1243;54.298;10.172;2023-04-21T10:10:27;18.60;1.00
2463;DHT22;1243;54.298;10.172;2023-04-21T10:12:53;18.50;1.00
2463;DHT22;1243;54.298;10.172;2023-04-21T10:15:39;18.80;1.00
2463;DHT22;1243;54.298;10.172;2023-04-21T10:18:19;19.20;1.00
2463;DHT22;1243;54.298;10.172;2023-04-21T10:21:06;19.60;1.00
2463;DHT22;1243;54.298;10.172;2023-04-21T10:23:36;20.00;1.00
2463;DHT22;1243;54.298;10.172;2023-04-21T10:31:20;18.80;1.00
2463;DHT22;1243;54.298;10.172;2023-04-21T10:39:23;19.60;1.00
2463;DHT22;1243;54.298;10.172;2023-04-21T10:41:50;19.60;1.00
2463;DHT22;1243;54.298;10.172;2023-04-21T10:44:16;19.50;1.00
2463;DHT22;1243;54.298;10.172;2023-04-21T10:46:47;19.50;1.00
2463;DHT22;1243;54.298;10.172;2023-04-21T10:49:27;19.70;1.00
2463;DHT22;1243;54.298;10.172;2023-04-21T10:54:41;19.40;1.00
2463;DHT22;1243;54.298;10.172;2023-04-21T10:57:18;19.20;1.00
2463;DHT22;1243;54.298;10.172;2023-04-21T10:59:46;19.40;1.00
2463;DHT22;1243;54.298;10.172;2023-04-21T11:02:14;19.20;1.00
2463;DHT22;1243;54.298;10.172;2023-04-21T11:04:40;18.90;1.00
2463;DHT22;1243;54.298;10.172;2023-04-21T11:07:14;19.20;1.00
2463;DHT22;1243;54.298;10.172;2023-04-21T11:09:41;19.30;1.00
2463;DHT22;1243;54.298;10.172;2023-04-21T11:12:09;19.10;1.00
2463;DHT22;1243;54.298;10.172;2023-04-21T11:14:36;18.70;1.00
2463;DHT22;1243;54.298;10.172;2023-04-21T11:17:11;19.10;1.00
2463;DHT22;1243;54.298;10.172;2023-04-21T11:19:37;19.20;1.00
2463;DHT22;1243;54.298;10.172;2023-04-21T11:22:04;19.30;1.00
2463;DHT22;1243;54.298;10.172;2023-04-21T11:24:30;19.80;1.00
2463;DHT22;1243;54.298;10.172;2023-04-21T11:26:56;20.00;1.00
2463;DHT22;1243;54.298;10.172;2023-04-21T11:29:23;20.50;1.00
2463;DHT22;1243;54.298;10.172;2023-04-21T11:31:49;20.70;1.00
2463;DHT22;1243;54.298;10.172;2023-04-21T11:34:18;20.90;1.00
2463;DHT22;1243;54.298;10.172;2023-04-21T11:36:45;21.00;1.00
2463;DHT22;1243;54.298;10.172;2023-04-21T11:39:14;21.10;1.00
2463;DHT22;1243;54.298;10.172;2023-04-21T11:41:45;21.20;1.00
2463;DHT22;1243;54.298;10.172;2023-04-21T11:44:12;21.10;1.00
2463;DHT22;1243;54.298;10.172;2023-04-21T11:46:44;20.90;1.00
2463;DHT22;1243;54.298;10.172;2023-04-21T11:49:13;21.00;1.00
2463;DHT22;1243;54.298;10.172;2023-04-21T11:51:40;20.80;1.00
2463;DHT22;1243;54.298;10.172;2023-04-21T11:54:09;20.70;1.00
2463;DHT22;1243;54.298;10.172;2023-04-21T11:56:55;20.20;1.00
2463;DHT22;1243;54.298;10.172;2023-04-21T11:59:21;19.70;1.00
2463;DHT22;1243;54.298;10.172;2023-04-21T12:01:53;19.60;1.00
2463;DHT22;1243;54.298;10.172;2023-04-21T12:04:20;19.90;1.00
2463;DHT22;1243;54.298;10.172;2023-04-21T12:07:00;20.10;1.00
2463;DHT22;1243;54.298;10.172;2023-04-21T12:09:27;20.30;1.00
2463;DHT22;1243;54.298;10.172;2023-04-21T12:11:55;20.50;1.00
2463;DHT22;1243;54.298;10.172;2023-04-21T12:14:23;20.40;1.00
2463;DHT22;1243;54.298;10.172;2023-04-21T12:16:56;20.10;1.00
2463;DHT22;1243;54.298;10.172;2023-04-21T12:19:23;19.90;1.00
2463;DHT22;1243;54.298;10.172;2023-04-21T12:21:54;20.00;1.00
2463;DHT22;1243;54.298;10.172;2023-04-21T12:24:23;20.20;1.00
2463;DHT22;1243;54.298;10.172;2023-04-21T12:26:49;20.00;1.00
2463;DHT22;1243;54.298;10.172;2023-04-21T12:29:14;20.10;1.00
2463;DHT22;1243;54.298;10.172;2023-04-21T12:31:40;20.00;1.00
2463;DHT22;1243;54.298;10.172;2023-04-21T12:34:06;20.20;1.00
2463;DHT22;1243;54.298;10.172;2023-04-21T12:36:31;20.20;1.00
2463;DHT22;1243;54.298;10.172;2023-04-21T12:38:57;20.30;1.00
2463;DHT22;1243;54.298;10.172;2023-04-21T12:41:23;20.20;1.00
2463;DHT22;1243;54.298;10.172;2023-04-21T12:43:48;20.10;1.00
2463;DHT22;1243;54.298;10.172;2023-04-21T12:46:14;19.90;1.00
2463;DHT22;1243;54.298;10.172;2023-04-21T12:48:40;20.10;1.00
2463;DHT22;1243;54.298;10.172;2023-04-21T12:51:06;20.00;1.00
2463;DHT22;1243;54.298;10.172;2023-04-21T12:53:31;20.20;1.00
2463;DHT22;1243;54.298;10.172;2023-04-21T12:55:57;20.30;1.00
2463;DHT22;1243;54.298;10.172;2023-04-21T12:58:23;20.60;1.00
2463;DHT22;1243;54.298;10.172;2023-04-21T13:00:49;20.80;1.00
2463;DHT22;1243;54.298;10.172;2023-04-21T13:03:14;20.90;1.00
2463;DHT22;1243;54.298;10.172;2023-04-21T13:05:40;21.20;1.00
2463;DHT22;1243;54.298;10.172;2023-04-21T13:08:05;21.50;1.00
2463;DHT22;1243;54.298;10.172;2023-04-21T13:10:31;21.50;1.00
2463;DHT22;1243;54.298;10.172;2023-04-21T13:12:57;21.70;1.00
2463;DHT22;1243;54.298;10.172;2023-04-21T13:15:22;21.90;1.00
2463;DHT22;1243;54.298;10.172;2023-04-21T13:17:48;21.50;1.00
2463;DHT22;1243;54.298;10.172;2023-04-21T13:20:14;20.70;1.00
2463;DHT22;1243;54.298;10.172;2023-04-21T13:22:40;20.60;1.00
2463;DHT22;1243;54.298;10.172;2023-04-21T13:25:06;20.10;1.00
2463;DHT22;1243;54.298;10.172;2023-04-21T13:27:32;20.00;1.00
2463;DHT22;1243;54.298;10.172;2023-04-21T13:29:58;19.90;1.00
2463;DHT22;1243;54.298;10.172;2023-04-21T13:32:24;19.90;1.00
2463;DHT22;1243;54.298;10.172;2023-04-21T13:34:49;20.20;1.00
2463;DHT22;1243;54.298;10.172;2023-04-21T13:37:15;20.80;1.00
2463;DHT22;1243;54.298;10.172;2023-04-21T13:39:41;21.30;1.00
2463;DHT22;1243;54.298;10.172;2023-04-21T13:42:07;21.80;1.00
2463;DHT22;1243;54.298;10.172;2023-04-21T13:44:33;22.00;1.00
2463;DHT22;1243;54.298;10.172;2023-04-21T13:46:59;21.70;1.00
2463;DHT22;1243;54.298;10.172;2023-04-21T13:49:25;21.20;1.00
2463;DHT22;1243;54.298;10.172;2023-04-21T13:51:51;21.30;1.00
2463;DHT22;1243;54.298;10.172;2023-04-21T13:54:16;21.10;1.00
2463;DHT22;1243;54.298;10.172;2023-04-21T13:56:42;21.10;1.00
2463;DHT22;1243;54.298;10.172;2023-04-21T13:59:08;21.20;1.00
2463;DHT22;1243;54.298;10.172;2023-04-21T14:01:35;21.80;1.00
2463;DHT22;1243;54.298;10.172;2023-04-21T14:04:01;22.20;1.00
2463;DHT22;1243;54.298;10.172;2023-04-21T14:06:27;22.70;1.00
2463;DHT22;1243;54.298;10.172;2023-04-21T14:08:53;22.60;1.00
2463;DHT22;1243;54.298;10.172;2023-04-21T14:11:19;21.60;1.00
2463;DHT22;1243;54.298;10.172;2023-04-21T14:13:48;21.20;1.00
2463;DHT22;1243;54.298;10.172;2023-04-21T14:16:14;21.10;1.00
2463;DHT22;1243;54.298;10.172;2023-04-21T14:18:40;20.60;1.00
2463;DHT22;1243;54.298;10.172;2023-04-21T14:21:12;20.20;1.00
2463;DHT22;1243;54.298;10.172;2023-04-21T14:23:38;20.10;1.00
2463;DHT22;1243;54.298;10.172;2023-04-21T14:26:04;20.10;1.00
2463;DHT22;1243;54.298;10.172;2023-04-21T14:28:32;20.10;1.00
2463;DHT22;1243;54.298;10.172;2023-04-21T14:30:58;19.90;1.00
2463;DHT22;1243;54.298;10.172;2023-04-21T14:33:23;19.90;1.00
2463;DHT22;1243;54.298;10.172;2023-04-21T14:35:49;19.70;1.00
2463;DHT22;1243;54.298;10.172;2023-04-21T14:38:15;20.20;1.00
2463;DHT22;1243;54.298;10.172;2023-04-21T14:40:41;20.00;1.00
2463;DHT22;1243;54.298;10.172;2023-04-21T14:43:07;20.00;1.00
2463;DHT22;1243;54.298;10.172;2023-04-21T14:45:35;20.30;1.00
2463;DHT22;1243;54.298;10.172;2023-04-21T14:48:01;20.00;1.00
2463;DHT22;1243;54.298;10.172;2023-04-21T14:50:27;19.70;1.00
2463;DHT22;1243;54.298;10.172;2023-04-21T14:52:53;19.80;1.00
2463;DHT22;1243;54.298;10.172;2023-04-21T14:55:18;19.80;1.00
2463;DHT22;1243;54.298;10.172;2023-04-21T14:57:44;19.80;1.00
2463;DHT22;1243;54.298;10.172;2023-04-21T15:00:11;19.40;1.00
2463;DHT22;1243;54.298;10.172;2023-04-21T15:02:37;19.30;1.00
2463;DHT22;1243;54.298;10.172;2023-04-21T15:05:06;19.30;1.00
2463;DHT22;1243;54.298;10.172;2023-04-21T15:07:36;18.90;1.00
2463;DHT22;1243;54.298;10.172;2023-04-21T15:10:05;18.70;1.00
2463;DHT22;1243;54.298;10.172;2023-04-21T15:12:31;18.60;1.00
2463;DHT22;1243;54.298;10.172;2023-04-21T15:14:57;18.90;1.00
2463;DHT22;1243;54.298;10.172;2023-04-21T15:17:23;19.40;1.00
2463;DHT22;1243;54.298;10.172;2023-04-21T15:19:49;19.40;1.00
2463;DHT22;1243;54.298;10.172;2023-04-21T15:22:14;19.50;1.00
2463;DHT22;1243;54.298;10.172;2023-04-21T15:24:40;19.30;1.00
2463;DHT22;1243;54.298;10.172;2023-04-21T15:27:06;19.20;1.00
2463;DHT22;1243;54.298;10.172;2023-04-21T15:29:31;18.80;1.00
2463;DHT22;1243;54.298;10.172;2023-04-21T15:31:57;18.70;1.00
2463;DHT22;1243;54.298;10.172;2023-04-21T15:34:23;18.80;1.00
2463;DHT22;1243;54.298;10.172;2023-04-21T15:36:48;18.80;1.00
2463;DHT22;1243;54.298;10.172;2023-04-21T15:39:14;18.50;1.00
2463;DHT22;1243;54.298;10.172;2023-04-21T15:41:40;18.00;1.00
2463;DHT22;1243;54.298;10.172;2023-04-21T15:44:06;17.80;1.00
2463;DHT22;1243;54.298;10.172;2023-04-21T15:46:32;17.70;1.00
2463;DHT22;1243;54.298;10.172;2023-04-21T15:48:58;17.70;1.00
2463;DHT22;1243;54.298;10.172;2023-04-21T15:51:25;18.00;1.00
2463;DHT22;1243;54.298;10.172;2023-04-21T15:53:51;18.20;1.00
2463;DHT22;1243;54.298;10.172;2023-04-21T15:56:17;18.50;1.00
2463;DHT22;1243;54.298;10.172;2023-04-21T15:58:42;18.40;1.00
2463;DHT22;1243;54.298;10.172;2023-04-21T16:01:08;18.40;1.00
2463;DHT22;1243;54.298;10.172;2023-04-21T16:03:34;18.20;1.00
2463;DHT22;1243;54.298;10.172;2023-04-21T16:06:00;18.10;1.00
2463;DHT22;1243;54.298;10.172;2023-04-21T16:08:26;17.90;1.00
2463;DHT22;1243;54.298;10.172;2023-04-21T16:10:52;17.80;1.00
2463;DHT22;1243;54.298;10.172;2023-04-21T16:13:18;17.40;1.00
2463;DHT22;1243;54.298;10.172;2023-04-21T16:15:44;17.20;1.00
2463;DHT22;1243;54.298;10.172;2023-04-21T16:18:10;17.00;1.00
2463;DHT22;1243;54.298;10.172;2023-04-21T16:20:36;16.70;1.00